Terminal Aerodrome Forecast
Issued by NWS Sterling, VA

Current Version | Previous Version | Graphics & Text | Print | Product List | Glossary On
Versions: 1 2 3 4 5 6 7 8 9 10 11 12 13 14 15 16 17 18 19 20 21 22 23 24 25 26
000
FTUS41 KLWX 281740
TAFIAD
TAF
KIAD 281740Z 2818/2924 18009KT P6SM SCT050
     FM290200 16004KT P6SM SCT250
     FM291700 17005KT P6SM -SHRA SCT040 BKN120
     FM292200 12005KT P6SM -SHRA OVC040=

USA.gov is the U.S. government's official web portal to all federal, state and local government web resources and services.